sensor_id;sensor_type;location;lat;lon;timestamp;temperature;humidity
61092;DHT22;46975;51.898;11.444;2022-08-24T00:02:14;17.10;99.90
61092;DHT22;46975;51.898;11.444;2022-08-24T00:04:41;17.10;99.90
61092;DHT22;46975;51.898;11.444;2022-08-24T00:07:07;17.10;99.90
61092;DHT22;46975;51.898;11.444;2022-08-24T00:09:34;17.10;99.90
61092;DHT22;46975;51.898;11.444;2022-08-24T00:12:00;16.90;99.90
61092;DHT22;46975;51.898;11.444;2022-08-24T00:14:26;16.80;99.90
61092;DHT22;46975;51.898;11.444;2022-08-24T00:16:52;16.70;99.90
61092;DHT22;46975;51.898;11.444;2022-08-24T00:19:19;16.70;99.90
61092;DHT22;46975;51.898;11.444;2022-08-24T00:21:45;16.80;99.90
61092;DHT22;46975;51.898;11.444;2022-08-24T00:24:10;16.80;99.90
61092;DHT22;46975;51.898;11.444;2022-08-24T00:26:36;16.70;99.90
61092;DHT22;46975;51.898;11.444;2022-08-24T00:29:03;16.70;99.90
61092;DHT22;46975;51.898;11.444;2022-08-24T00:31:29;16.80;99.90
61092;DHT22;46975;51.898;11.444;2022-08-24T00:33:55;16.70;99.90
61092;DHT22;46975;51.898;11.444;2022-08-24T00:36:21;16.80;99.90
61092;DHT22;46975;51.898;11.444;2022-08-24T00:38:47;16.80;99.90
61092;DHT22;46975;51.898;11.444;2022-08-24T00:41:14;16.80;99.90
61092;DHT22;46975;51.898;11.444;2022-08-24T00:43:50;16.60;99.90
61092;DHT22;46975;51.898;11.444;2022-08-24T00:49:36;16.50;99.90
61092;DHT22;46975;51.898;11.444;2022-08-24T00:52:25;16.50;99.90
61092;DHT22;46975;51.898;11.444;2022-08-24T00:54:58;16.50;99.90
61092;DHT22;46975;51.898;11.444;2022-08-24T00:57:28;16.40;99.90
61092;DHT22;46975;51.898;11.444;2022-08-24T01:00:03;16.30;99.90
61092;DHT22;46975;51.898;11.444;2022-08-24T01:02:33;16.30;99.90
61092;DHT22;46975;51.898;11.444;2022-08-24T01:05:03;16.40;99.90
61092;DHT22;46975;51.898;11.444;2022-08-24T01:07:30;16.50;99.90
61092;DHT22;46975;51.898;11.444;2022-08-24T01:10:00;16.40;99.90
61092;DHT22;46975;51.898;11.444;2022-08-24T01:12:31;16.40;99.90
61092;DHT22;46975;51.898;11.444;2022-08-24T01:14:59;16.30;99.90
61092;DHT22;46975;51.898;11.444;2022-08-24T01:17:26;16.10;99.90
61092;DHT22;46975;51.898;11.444;2022-08-24T01:20:12;16.00;99.90
61092;DHT22;46975;51.898;11.444;2022-08-24T01:23:04;15.90;99.90
61092;DHT22;46975;51.898;11.444;2022-08-24T01:25:33;16.00;99.90
61092;DHT22;46975;51.898;11.444;2022-08-24T01:28:04;16.10;99.90
61092;DHT22;46975;51.898;11.444;2022-08-24T01:30:31;16.10;99.90
61092;DHT22;46975;51.898;11.444;2022-08-24T01:33:03;16.00;99.90
61092;DHT22;46975;51.898;11.444;2022-08-24T01:35:30;15.80;99.90
61092;DHT22;46975;51.898;11.444;2022-08-24T01:37:59;15.80;99.90
61092;DHT22;46975;51.898;11.444;2022-08-24T01:40:32;15.80;99.90
61092;DHT22;46975;51.898;11.444;2022-08-24T01:42:59;15.90;99.90
61092;DHT22;46975;51.898;11.444;2022-08-24T01:45:25;15.70;99.90
61092;DHT22;46975;51.898;11.444;2022-08-24T01:47:51;15.50;99.90
61092;DHT22;46975;51.898;11.444;2022-08-24T01:50:17;15.40;99.90
61092;DHT22;46975;51.898;11.444;2022-08-24T01:52:43;15.40;99.90
61092;DHT22;46975;51.898;11.444;2022-08-24T01:55:11;15.50;99.90
61092;DHT22;46975;51.898;11.444;2022-08-24T01:57:38;15.40;99.90
61092;DHT22;46975;51.898;11.444;2022-08-24T02:00:10;15.40;99.90
61092;DHT22;46975;51.898;11.444;2022-08-24T02:02:39;15.40;99.90
61092;DHT22;46975;51.898;11.444;2022-08-24T02:05:06;15.30;99.90
61092;DHT22;46975;51.898;11.444;2022-08-24T02:07:32;15.30;99.90
61092;DHT22;46975;51.898;11.444;2022-08-24T02:09:57;15.10;99.90
61092;DHT22;46975;51.898;11.444;2022-08-24T02:12:23;15.00;99.90
61092;DHT22;46975;51.898;11.444;2022-08-24T02:14:49;15.10;99.90
61092;DHT22;46975;51.898;11.444;2022-08-24T02:17:16;15.00;99.90
61092;DHT22;46975;51.898;11.444;2022-08-24T02:19:42;14.90;99.90
61092;DHT22;46975;51.898;11.444;2022-08-24T02:22:08;14.90;99.90
61092;DHT22;46975;51.898;11.444;2022-08-24T02:24:34;14.80;99.90
61092;DHT22;46975;51.898;11.444;2022-08-24T02:27:00;14.80;99.90
61092;DHT22;46975;51.898;11.444;2022-08-24T02:29:26;14.80;99.90
61092;DHT22;46975;51.898;11.444;2022-08-24T02:31:52;14.90;99.90
61092;DHT22;46975;51.898;11.444;2022-08-24T02:34:18;15.00;99.90
61092;DHT22;46975;51.898;11.444;2022-08-24T02:36:44;14.90;99.90
61092;DHT22;46975;51.898;11.444;2022-08-24T02:39:11;14.90;99.90
61092;DHT22;46975;51.898;11.444;2022-08-24T02:41:36;14.90;99.90
61092;DHT22;46975;51.898;11.444;2022-08-24T02:44:03;14.90;99.90
61092;DHT22;46975;51.898;11.444;2022-08-24T02:46:29;14.90;99.90
61092;DHT22;46975;51.898;11.444;2022-08-24T02:48:56;14.90;99.90
61092;DHT22;46975;51.898;11.444;2022-08-24T02:51:33;14.90;99.90
61092;DHT22;46975;51.898;11.444;2022-08-24T02:54:00;14.80;99.90
61092;DHT22;46975;51.898;11.444;2022-08-24T02:56:27;14.70;99.90
61092;DHT22;46975;51.898;11.444;2022-08-24T02:58:57;14.70;99.90
61092;DHT22;46975;51.898;11.444;2022-08-24T03:01:24;14.70;99.90
61092;DHT22;46975;51.898;11.444;2022-08-24T03:03:49;14.80;99.90
61092;DHT22;46975;51.898;11.444;2022-08-24T03:06:16;14.70;99.90
61092;DHT22;46975;51.898;11.444;2022-08-24T03:08:42;14.60;99.90
61092;DHT22;46975;51.898;11.444;2022-08-24T03:11:09;14.70;99.90
61092;DHT22;46975;51.898;11.444;2022-08-24T03:13:35;14.80;99.90
61092;DHT22;46975;51.898;11.444;2022-08-24T03:16:02;14.60;99.90
61092;DHT22;46975;51.898;11.444;2022-08-24T03:18:27;14.60;99.90
61092;DHT22;46975;51.898;11.444;2022-08-24T03:20:56;14.70;99.90
61092;DHT22;46975;51.898;11.444;2022-08-24T03:23:22;14.70;99.90
61092;DHT22;46975;51.898;11.444;2022-08-24T03:25:50;14.80;99.90
61092;DHT22;46975;51.898;11.444;2022-08-24T03:28:17;14.80;99.90
61092;DHT22;46975;51.898;11.444;2022-08-24T03:30:43;14.80;99.90
61092;DHT22;46975;51.898;11.444;2022-08-24T03:33:10;14.80;99.90
61092;DHT22;46975;51.898;11.444;2022-08-24T03:35:35;14.80;99.90
61092;DHT22;46975;51.898;11.444;2022-08-24T03:38:01;14.80;99.90
61092;DHT22;46975;51.898;11.444;2022-08-24T03:40:27;14.80;99.90
61092;DHT22;46975;51.898;11.444;2022-08-24T03:42:53;14.80;99.90
61092;DHT22;46975;51.898;11.444;2022-08-24T03:45:20;14.80;99.90
61092;DHT22;46975;51.898;11.444;2022-08-24T03:47:46;14.70;99.90
61092;DHT22;46975;51.898;11.444;2022-08-24T03:50:12;14.70;99.90
61092;DHT22;46975;51.898;11.444;2022-08-24T03:52:38;14.60;99.90
61092;DHT22;46975;51.898;11.444;2022-08-24T03:55:06;14.60;99.90
61092;DHT22;46975;51.898;11.444;2022-08-24T03:57:32;14.60;99.90
61092;DHT22;46975;51.898;11.444;2022-08-24T03:59:59;14.60;99.90
61092;DHT22;46975;51.898;11.444;2022-08-24T04:02:25;14.50;99.90
61092;DHT22;46975;51.898;11.444;2022-08-24T04:04:51;14.50;99.90
61092;DHT22;46975;51.898;11.444;2022-08-24T04:07:17;14.50;99.90
61092;DHT22;46975;51.898;11.444;2022-08-24T04:09:42;14.50;99.90
61092;DHT22;46975;51.898;11.444;2022-08-24T04:12:08;14.40;99.90
61092;DHT22;46975;51.898;11.444;2022-08-24T04:14:34;14.40;99.90
61092;DHT22;46975;51.898;11.444;2022-08-24T04:17:00;14.30;99.90
61092;DHT22;46975;51.898;11.444;2022-08-24T04:19:26;14.30;99.90
61092;DHT22;46975;51.898;11.444;2022-08-24T04:21:52;14.20;99.90
61092;DHT22;46975;51.898;11.444;2022-08-24T04:24:18;14.10;99.90
61092;DHT22;46975;51.898;11.444;2022-08-24T04:26:45;14.00;99.90
61092;DHT22;46975;51.898;11.444;2022-08-24T04:29:12;14.00;99.90
61092;DHT22;46975;51.898;11.444;2022-08-24T04:31:40;14.10;99.90
61092;DHT22;46975;51.898;11.444;2022-08-24T04:34:07;14.10;99.90
61092;DHT22;46975;51.898;11.444;2022-08-24T04:36:33;14.10;99.90
61092;DHT22;46975;51.898;11.444;2022-08-24T04:39:02;14.00;99.90
61092;DHT22;46975;51.898;11.444;2022-08-24T04:41:28;14.00;99.90
61092;DHT22;46975;51.898;11.444;2022-08-24T04:43:54;14.00;99.90
61092;DHT22;46975;51.898;11.444;2022-08-24T04:46:19;13.90;99.90
61092;DHT22;46975;51.898;11.444;2022-08-24T04:48:47;13.90;99.90
61092;DHT22;46975;51.898;11.444;2022-08-24T04:51:15;13.90;99.90
61092;DHT22;46975;51.898;11.444;2022-08-24T04:53:42;14.00;99.90
61092;DHT22;46975;51.898;11.444;2022-08-24T04:56:11;14.00;99.90
61092;DHT22;46975;51.898;11.444;2022-08-24T04:58:37;14.10;99.90
61092;DHT22;46975;51.898;11.444;2022-08-24T05:01:24;14.20;99.90
61092;DHT22;46975;51.898;11.444;2022-08-24T05:03:52;14.30;99.90
61092;DHT22;46975;51.898;11.444;2022-08-24T05:06:19;14.30;99.90
61092;DHT22;46975;51.898;11.444;2022-08-24T05:08:46;14.50;99.90
61092;DHT22;46975;51.898;11.444;2022-08-24T05:11:12;14.60;99.90
61092;DHT22;46975;51.898;11.444;2022-08-24T05:13:39;14.70;99.90
61092;DHT22;46975;51.898;11.444;2022-08-24T05:16:07;14.80;99.90
61092;DHT22;46975;51.898;11.444;2022-08-24T05:18:33;14.90;99.90
61092;DHT22;46975;51.898;11.444;2022-08-24T05:20:59;15.00;99.90
61092;DHT22;46975;51.898;11.444;2022-08-24T05:23:25;15.00;99.90
61092;DHT22;46975;51.898;11.444;2022-08-24T05:25:51;15.10;99.90
61092;DHT22;46975;51.898;11.444;2022-08-24T05:28:17;15.20;99.90
61092;DHT22;46975;51.898;11.444;2022-08-24T05:30:43;15.30;99.90
61092;DHT22;46975;51.898;11.444;2022-08-24T05:33:09;15.30;99.90
61092;DHT22;46975;51.898;11.444;2022-08-24T05:35:37;15.40;99.90
61092;DHT22;46975;51.898;11.444;2022-08-24T05:38:03;15.50;99.90
61092;DHT22;46975;51.898;11.444;2022-08-24T05:40:29;15.60;99.90
61092;DHT22;46975;51.898;11.444;2022-08-24T05:42:54;15.70;99.90
61092;DHT22;46975;51.898;11.444;2022-08-24T05:45:20;15.80;99.90
61092;DHT22;46975;51.898;11.444;2022-08-24T05:47:46;15.80;99.90
61092;DHT22;46975;51.898;11.444;2022-08-24T05:50:11;15.90;99.90
61092;DHT22;46975;51.898;11.444;2022-08-24T05:52:37;16.20;99.90
61092;DHT22;46975;51.898;11.444;2022-08-24T05:55:03;16.30;99.90
61092;DHT22;46975;51.898;11.444;2022-08-24T05:57:34;16.40;99.90
61092;DHT22;46975;51.898;11.444;2022-08-24T06:00:00;16.50;99.90
61092;DHT22;46975;51.898;11.444;2022-08-24T06:02:26;16.50;99.90
61092;DHT22;46975;51.898;11.444;2022-08-24T06:04:53;16.40;99.90
61092;DHT22;46975;51.898;11.444;2022-08-24T06:07:19;16.50;99.90
61092;DHT22;46975;51.898;11.444;2022-08-24T06:09:44;16.60;99.90
61092;DHT22;46975;51.898;11.444;2022-08-24T06:12:10;16.80;99.90
61092;DHT22;46975;51.898;11.444;2022-08-24T06:14:38;16.90;99.90
61092;DHT22;46975;51.898;11.444;2022-08-24T06:17:06;17.10;99.90
61092;DHT22;46975;51.898;11.444;2022-08-24T06:19:32;17.30;99.90
61092;DHT22;46975;51.898;11.444;2022-08-24T06:21:58;17.40;99.90
61092;DHT22;46975;51.898;11.444;2022-08-24T06:24:24;17.60;99.90
61092;DHT22;46975;51.898;11.444;2022-08-24T06:27:10;17.70;99.90
61092;DHT22;46975;51.898;11.444;2022-08-24T06:29:45;17.90;99.90
61092;DHT22;46975;51.898;11.444;2022-08-24T06:32:11;18.00;99.90
61092;DHT22;46975;51.898;11.444;2022-08-24T06:34:37;18.20;99.90
61092;DHT22;46975;51.898;11.444;2022-08-24T06:37:04;18.40;99.90
61092;DHT22;46975;51.898;11.444;2022-08-24T06:39:29;18.50;99.90
61092;DHT22;46975;51.898;11.444;2022-08-24T06:41:55;18.70;99.90
61092;DHT22;46975;51.898;11.444;2022-08-24T06:44:21;18.90;99.90
61092;DHT22;46975;51.898;11.444;2022-08-24T06:46:46;19.00;99.90
61092;DHT22;46975;51.898;11.444;2022-08-24T06:49:12;19.20;99.90
61092;DHT22;46975;51.898;11.444;2022-08-24T06:51:38;19.50;99.90
61092;DHT22;46975;51.898;11.444;2022-08-24T06:54:04;19.60;99.90
61092;DHT22;46975;51.898;11.444;2022-08-24T06:56:30;19.80;99.90
61092;DHT22;46975;51.898;11.444;2022-08-24T06:58:55;20.00;99.90
61092;DHT22;46975;51.898;11.444;2022-08-24T07:01:24;20.00;99.90
61092;DHT22;46975;51.898;11.444;2022-08-24T07:03:51;20.20;99.90
61092;DHT22;46975;51.898;11.444;2022-08-24T07:06:17;20.40;99.90
61092;DHT22;46975;51.898;11.444;2022-08-24T07:08:43;20.60;99.90
61092;DHT22;46975;51.898;11.444;2022-08-24T07:11:11;20.90;99.90
61092;DHT22;46975;51.898;11.444;2022-08-24T07:13:39;21.20;99.90
61092;DHT22;46975;51.898;11.444;2022-08-24T07:16:05;21.60;99.90
61092;DHT22;46975;51.898;11.444;2022-08-24T07:18:31;22.40;99.90
61092;DHT22;46975;51.898;11.444;2022-08-24T07:20:59;24.50;99.90
61092;DHT22;46975;51.898;11.444;2022-08-24T07:23:25;26.00;99.90
61092;DHT22;46975;51.898;11.444;2022-08-24T07:25:51;27.20;99.90
61092;DHT22;46975;51.898;11.444;2022-08-24T07:28:17;27.70;99.90
61092;DHT22;46975;51.898;11.444;2022-08-24T07:30:43;27.90;99.90
61092;DHT22;46975;51.898;11.444;2022-08-24T07:33:09;27.80;99.90
61092;DHT22;46975;51.898;11.444;2022-08-24T07:35:35;28.20;99.90
61092;DHT22;46975;51.898;11.444;2022-08-24T07:38:02;28.60;99.90
61092;DHT22;46975;51.898;11.444;2022-08-24T07:40:29;28.90;99.90
61092;DHT22;46975;51.898;11.444;2022-08-24T07:42:56;29.00;99.90
61092;DHT22;46975;51.898;11.444;2022-08-24T07:45:22;29.10;99.90
61092;DHT22;46975;51.898;11.444;2022-08-24T07:47:49;28.80;99.90
61092;DHT22;46975;51.898;11.444;2022-08-24T07:50:16;29.50;99.90
61092;DHT22;46975;51.898;11.444;2022-08-24T07:52:43;29.30;99.90
61092;DHT22;46975;51.898;11.444;2022-08-24T07:55:10;28.80;99.90
61092;DHT22;46975;51.898;11.444;2022-08-24T07:57:37;28.70;99.90
61092;DHT22;46975;51.898;11.444;2022-08-24T08:00:05;29.10;99.90
61092;DHT22;46975;51.898;11.444;2022-08-24T08:02:32;29.40;99.90
61092;DHT22;46975;51.898;11.444;2022-08-24T08:04:58;29.40;99.90
61092;DHT22;46975;51.898;11.444;2022-08-24T08:07:24;29.50;99.90
61092;DHT22;46975;51.898;11.444;2022-08-24T08:09:50;29.80;99.90
61092;DHT22;46975;51.898;11.444;2022-08-24T08:12:17;29.60;99.90
61092;DHT22;46975;51.898;11.444;2022-08-24T08:14:43;29.40;99.90
61092;DHT22;46975;51.898;11.444;2022-08-24T08:17:09;29.60;99.90
61092;DHT22;46975;51.898;11.444;2022-08-24T08:19:35;29.90;99.90
61092;DHT22;46975;51.898;11.444;2022-08-24T08:22:01;30.10;99.90
61092;DHT22;46975;51.898;11.444;2022-08-24T08:24:45;30.50;99.90
61092;DHT22;46975;51.898;11.444;2022-08-24T08:27:12;30.40;99.90
61092;DHT22;46975;51.898;11.444;2022-08-24T08:29:39;30.60;99.90
61092;DHT22;46975;51.898;11.444;2022-08-24T08:32:06;30.40;99.90
61092;DHT22;46975;51.898;11.444;2022-08-24T08:34:32;30.30;99.90
61092;DHT22;46975;51.898;11.444;2022-08-24T08:36:58;30.80;99.90
61092;DHT22;46975;51.898;11.444;2022-08-24T08:39:25;31.20;99.90
61092;DHT22;46975;51.898;11.444;2022-08-24T08:42:11;31.30;99.90
61092;DHT22;46975;51.898;11.444;2022-08-24T08:50:18;30.50;99.90
61092;DHT22;46975;51.898;11.444;2022-08-24T08:55:30;29.90;99.90
61092;DHT22;46975;51.898;11.444;2022-08-24T09:04:02;30.00;99.70
61092;DHT22;46975;51.898;11.444;2022-08-24T09:06:49;30.30;99.80
61092;DHT22;46975;51.898;11.444;2022-08-24T09:29:03;28.60;99.90
61092;DHT22;46975;51.898;11.444;2022-08-24T09:34:25;28.70;99.90
61092;DHT22;46975;51.898;11.444;2022-08-24T09:39:58;29.60;98.50
61092;DHT22;46975;51.898;11.444;2022-08-24T09:51:21;31.60;94.80
61092;DHT22;46975;51.898;11.444;2022-08-24T10:05:08;32.30;93.60
61092;DHT22;46975;51.898;11.444;2022-08-24T10:07:49;33.00;92.40
61092;DHT22;46975;51.898;11.444;2022-08-24T10:19:16;33.40;91.50
61092;DHT22;46975;51.898;11.444;2022-08-24T10:47:00;32.90;88.40
61092;DHT22;46975;51.898;11.444;2022-08-24T10:54:54;32.80;87.00
61092;DHT22;46975;51.898;11.444;2022-08-24T10:57:38;32.50;85.80
61092;DHT22;46975;51.898;11.444;2022-08-24T11:00:13;32.10;86.30
61092;DHT22;46975;51.898;11.444;2022-08-24T11:02:42;31.60;86.70
61092;DHT22;46975;51.898;11.444;2022-08-24T11:05:16;31.60;88.00
61092;DHT22;46975;51.898;11.444;2022-08-24T11:07:59;31.70;86.50
61092;DHT22;46975;51.898;11.444;2022-08-24T11:10:31;31.40;88.60
61092;DHT22;46975;51.898;11.444;2022-08-24T11:15:47;31.90;87.30
61092;DHT22;46975;51.898;11.444;2022-08-24T11:18:15;32.30;89.80
61092;DHT22;46975;51.898;11.444;2022-08-24T11:20:44;32.50;86.30
61092;DHT22;46975;51.898;11.444;2022-08-24T11:23:25;32.70;82.70
61092;DHT22;46975;51.898;11.444;2022-08-24T11:26:19;32.50;81.10
61092;DHT22;46975;51.898;11.444;2022-08-24T11:28:50;32.00;82.90
61092;DHT22;46975;51.898;11.444;2022-08-24T11:31:38;32.00;84.10
61092;DHT22;46975;51.898;11.444;2022-08-24T11:34:56;31.90;81.90
61092;DHT22;46975;51.898;11.444;2022-08-24T11:37:12;32.00;83.00
61092;DHT22;46975;51.898;11.444;2022-08-24T11:39:38;32.10;83.90
61092;DHT22;46975;51.898;11.444;2022-08-24T11:48:06;32.60;80.20
61092;DHT22;46975;51.898;11.444;2022-08-24T11:59:05;33.00;79.80
61092;DHT22;46975;51.898;11.444;2022-08-24T12:01:33;33.30;77.70
61092;DHT22;46975;51.898;11.444;2022-08-24T12:09:39;33.50;70.40
61092;DHT22;46975;51.898;11.444;2022-08-24T12:12:24;34.00;68.80
61092;DHT22;46975;51.898;11.444;2022-08-24T12:15:01;34.60;73.90
61092;DHT22;46975;51.898;11.444;2022-08-24T12:20:29;33.80;73.50
61092;DHT22;46975;51.898;11.444;2022-08-24T12:23:00;33.90;77.50
61092;DHT22;46975;51.898;11.444;2022-08-24T12:25:29;33.90;74.40
61092;DHT22;46975;51.898;11.444;2022-08-24T12:28:22;32.90;73.80
61092;DHT22;46975;51.898;11.444;2022-08-24T12:30:50;33.70;77.40
61092;DHT22;46975;51.898;11.444;2022-08-24T12:33:19;34.60;74.70
61092;DHT22;46975;51.898;11.444;2022-08-24T12:35:54;34.90;66.90
61092;DHT22;46975;51.898;11.444;2022-08-24T12:38:41;35.00;68.60
61092;DHT22;46975;51.898;11.444;2022-08-24T12:41:16;35.40;70.40
61092;DHT22;46975;51.898;11.444;2022-08-24T12:44:09;35.10;68.80
61092;DHT22;46975;51.898;11.444;2022-08-24T12:46:37;34.90;68.70
61092;DHT22;46975;51.898;11.444;2022-08-24T12:52:29;34.60;67.90
61092;DHT22;46975;51.898;11.444;2022-08-24T12:55:20;34.60;67.30
61092;DHT22;46975;51.898;11.444;2022-08-24T12:57:56;35.10;68.30
61092;DHT22;46975;51.898;11.444;2022-08-24T13:00:36;35.10;70.00
61092;DHT22;46975;51.898;11.444;2022-08-24T13:03:06;34.60;67.60
61092;DHT22;46975;51.898;11.444;2022-08-24T13:05:43;34.40;71.30
61092;DHT22;46975;51.898;11.444;2022-08-24T13:08:20;34.60;69.00
61092;DHT22;46975;51.898;11.444;2022-08-24T13:11:01;34.80;65.90
61092;DHT22;46975;51.898;11.444;2022-08-24T13:13:47;34.40;66.00
61092;DHT22;46975;51.898;11.444;2022-08-24T13:16:46;34.20;70.60
61092;DHT22;46975;51.898;11.444;2022-08-24T13:30:06;34.60;66.50
61092;DHT22;46975;51.898;11.444;2022-08-24T13:32:54;34.20;65.60
61092;DHT22;46975;51.898;11.444;2022-08-24T13:51:34;34.00;64.50
61092;DHT22;46975;51.898;11.444;2022-08-24T13:59:44;34.50;62.60
61092;DHT22;46975;51.898;11.444;2022-08-24T14:04:53;34.20;63.10
61092;DHT22;46975;51.898;11.444;2022-08-24T14:07:33;33.90;69.60
61092;DHT22;46975;51.898;11.444;2022-08-24T14:10:48;33.50;69.40
61092;DHT22;46975;51.898;11.444;2022-08-24T14:16:53;33.90;66.60
61092;DHT22;46975;51.898;11.444;2022-08-24T14:23:01;34.00;63.00
61092;DHT22;46975;51.898;11.444;2022-08-24T14:25:28;33.40;64.40
61092;DHT22;46975;51.898;11.444;2022-08-24T14:41:09;34.10;64.60
61092;DHT22;46975;51.898;11.444;2022-08-24T14:44:16;33.50;62.50
61092;DHT22;46975;51.898;11.444;2022-08-24T14:46:49;33.50;63.40
61092;DHT22;46975;51.898;11.444;2022-08-24T15:00:54;32.80;60.30
61092;DHT22;46975;51.898;11.444;2022-08-24T15:03:36;33.50;61.70
61092;DHT22;46975;51.898;11.444;2022-08-24T15:06:45;33.50;62.30
61092;DHT22;46975;51.898;11.444;2022-08-24T15:09:18;33.40;58.30
61092;DHT22;46975;51.898;11.444;2022-08-24T15:11:46;33.70;57.90
61092;DHT22;46975;51.898;11.444;2022-08-24T15:17:10;33.30;59.70
61092;DHT22;46975;51.898;11.444;2022-08-24T15:25:09;33.10;56.10
61092;DHT22;46975;51.898;11.444;2022-08-24T15:27:45;33.10;56.60
61092;DHT22;46975;51.898;11.444;2022-08-24T15:33:00;33.10;56.80
61092;DHT22;46975;51.898;11.444;2022-08-24T15:35:41;33.30;60.20
61092;DHT22;46975;51.898;11.444;2022-08-24T15:38:34;33.30;56.70
61092;DHT22;46975;51.898;11.444;2022-08-24T15:41:20;33.40;56.70
61092;DHT22;46975;51.898;11.444;2022-08-24T15:46:21;32.90;55.50
61092;DHT22;46975;51.898;11.444;2022-08-24T15:48:48;32.80;57.00
61092;DHT22;46975;51.898;11.444;2022-08-24T15:51:43;32.90;57.30
61092;DHT22;46975;51.898;11.444;2022-08-24T16:10:49;32.50;64.20
61092;DHT22;46975;51.898;11.444;2022-08-24T16:16:02;31.70;70.20
61092;DHT22;46975;51.898;11.444;2022-08-24T16:18:46;31.50;66.90
61092;DHT22;46975;51.898;11.444;2022-08-24T16:24:26;31.30;70.30
61092;DHT22;46975;51.898;11.444;2022-08-24T16:27:07;31.10;71.50
61092;DHT22;46975;51.898;11.444;2022-08-24T16:34:37;31.00;73.90
61092;DHT22;46975;51.898;11.444;2022-08-24T16:37:04;30.80;71.60
61092;DHT22;46975;51.898;11.444;2022-08-24T16:39:30;30.80;75.10
61092;DHT22;46975;51.898;11.444;2022-08-24T16:41:58;30.50;76.60
61092;DHT22;46975;51.898;11.444;2022-08-24T16:44:32;30.30;78.40
61092;DHT22;46975;51.898;11.444;2022-08-24T16:46:58;30.00;86.50
61092;DHT22;46975;51.898;11.444;2022-08-24T16:49:24;29.60;86.20
61092;DHT22;46975;51.898;11.444;2022-08-24T16:51:49;29.40;88.90
61092;DHT22;46975;51.898;11.444;2022-08-24T16:54:15;29.10;87.80
61092;DHT22;46975;51.898;11.444;2022-08-24T16:56:41;28.90;91.30
61092;DHT22;46975;51.898;11.444;2022-08-24T16:59:10;28.80;90.00
61092;DHT22;46975;51.898;11.444;2022-08-24T17:01:37;28.60;88.80
61092;DHT22;46975;51.898;11.444;2022-08-24T17:04:03;28.30;91.50
61092;DHT22;46975;51.898;11.444;2022-08-24T17:06:29;28.10;92.40
61092;DHT22;46975;51.898;11.444;2022-08-24T17:08:54;27.90;93.30
61092;DHT22;46975;51.898;11.444;2022-08-24T17:11:20;27.80;94.40
61092;DHT22;46975;51.898;11.444;2022-08-24T17:13:45;27.60;92.30
61092;DHT22;46975;51.898;11.444;2022-08-24T17:16:12;27.50;92.60
61092;DHT22;46975;51.898;11.444;2022-08-24T17:18:39;27.40;93.60
61092;DHT22;46975;51.898;11.444;2022-08-24T17:21:05;27.30;93.70
61092;DHT22;46975;51.898;11.444;2022-08-24T17:23:32;27.20;93.90
61092;DHT22;46975;51.898;11.444;2022-08-24T17:25:58;27.10;94.30
61092;DHT22;46975;51.898;11.444;2022-08-24T17:28:24;27.00;94.30
61092;DHT22;46975;51.898;11.444;2022-08-24T17:30:50;27.00;94.40
61092;DHT22;46975;51.898;11.444;2022-08-24T17:33:16;26.90;94.70
61092;DHT22;46975;51.898;11.444;2022-08-24T17:35:43;26.90;94.70
61092;DHT22;46975;51.898;11.444;2022-08-24T17:38:09;26.80;95.40
61092;DHT22;46975;51.898;11.444;2022-08-24T17:40:35;26.70;95.40
61092;DHT22;46975;51.898;11.444;2022-08-24T17:43:00;26.60;96.00
61092;DHT22;46975;51.898;11.444;2022-08-24T17:45:26;26.50;96.40
61092;DHT22;46975;51.898;11.444;2022-08-24T17:47:52;26.40;96.50
61092;DHT22;46975;51.898;11.444;2022-08-24T17:50:19;26.40;96.80
61092;DHT22;46975;51.898;11.444;2022-08-24T17:52:45;26.30;97.30
61092;DHT22;46975;51.898;11.444;2022-08-24T17:55:12;26.20;98.30
61092;DHT22;46975;51.898;11.444;2022-08-24T17:57:38;26.10;98.40
61092;DHT22;46975;51.898;11.444;2022-08-24T18:00:06;26.00;98.20
61092;DHT22;46975;51.898;11.444;2022-08-24T18:02:32;26.00;98.70
61092;DHT22;46975;51.898;11.444;2022-08-24T18:04:59;25.90;99.10
61092;DHT22;46975;51.898;11.444;2022-08-24T18:07:25;25.80;99.40
61092;DHT22;46975;51.898;11.444;2022-08-24T18:09:54;25.70;99.50
61092;DHT22;46975;51.898;11.444;2022-08-24T18:12:22;25.60;99.90
61092;DHT22;46975;51.898;11.444;2022-08-24T18:14:49;25.50;99.90
61092;DHT22;46975;51.898;11.444;2022-08-24T18:17:21;25.40;99.90
61092;DHT22;46975;51.898;11.444;2022-08-24T18:19:47;25.40;99.90
61092;DHT22;46975;51.898;11.444;2022-08-24T18:22:15;25.30;99.90
61092;DHT22;46975;51.898;11.444;2022-08-24T18:24:41;25.10;99.90
61092;DHT22;46975;51.898;11.444;2022-08-24T18:27:17;25.10;99.90
61092;DHT22;46975;51.898;11.444;2022-08-24T18:29:44;24.90;99.90
61092;DHT22;46975;51.898;11.444;2022-08-24T18:32:10;24.80;99.90
61092;DHT22;46975;51.898;11.444;2022-08-24T18:34:37;24.60;99.90
61092;DHT22;46975;51.898;11.444;2022-08-24T18:37:03;24.50;99.90
61092;DHT22;46975;51.898;11.444;2022-08-24T18:39:29;24.40;99.90
61092;DHT22;46975;51.898;11.444;2022-08-24T18:41:57;24.20;99.90
61092;DHT22;46975;51.898;11.444;2022-08-24T18:44:23;24.10;99.90
61092;DHT22;46975;51.898;11.444;2022-08-24T18:46:50;24.00;99.90
61092;DHT22;46975;51.898;11.444;2022-08-24T18:49:17;23.90;99.90
61092;DHT22;46975;51.898;11.444;2022-08-24T18:51:43;23.80;99.90
61092;DHT22;46975;51.898;11.444;2022-08-24T18:54:14;23.70;99.90
61092;DHT22;46975;51.898;11.444;2022-08-24T18:56:41;23.70;99.90
61092;DHT22;46975;51.898;11.444;2022-08-24T18:59:09;23.60;99.90
61092;DHT22;46975;51.898;11.444;2022-08-24T19:01:35;23.50;99.90
61092;DHT22;46975;51.898;11.444;2022-08-24T19:04:20;23.40;99.90
61092;DHT22;46975;51.898;11.444;2022-08-24T19:06:46;23.20;99.90
61092;DHT22;46975;51.898;11.444;2022-08-24T19:09:12;23.20;99.90
61092;DHT22;46975;51.898;11.444;2022-08-24T19:11:37;23.20;99.90
61092;DHT22;46975;51.898;11.444;2022-08-24T19:14:03;23.10;99.90
61092;DHT22;46975;51.898;11.444;2022-08-24T19:16:29;23.00;99.90
61092;DHT22;46975;51.898;11.444;2022-08-24T19:18:55;23.00;99.90
61092;DHT22;46975;51.898;11.444;2022-08-24T19:21:20;22.90;99.90
61092;DHT22;46975;51.898;11.444;2022-08-24T19:23:46;22.80;99.90
61092;DHT22;46975;51.898;11.444;2022-08-24T19:26:12;22.70;99.90
61092;DHT22;46975;51.898;11.444;2022-08-24T19:28:38;22.60;99.90
61092;DHT22;46975;51.898;11.444;2022-08-24T19:31:09;22.60;99.90